Estación Meteorológica Peña el Pijo (Robertgarden) [ 09/23/17 05:47:14 CEST ]

Fecha Hora Presion(HPa) Temp (°C) Humedad % Rocio (°C) Viento ( m/s) Direccion Lluvia 1Hora(mm) Lluvia 24H(mm) LLuvia Total(mm)
2017-Jul-01 01:01:42 1012.400 10.3 53 1.1         1427.60
2017-Jul-01 02:01:38 1012.300 10.1 55 1.4         1427.60
2017-Jul-01 03:01:32 1012.000 9.5 56 1.1         1427.60
2017-Jul-01 04:01:29 1011.800 8.8 59 1.2         1427.60
2017-Jul-01 05:01:36 1011.500 7.9 63 1.3         1427.60
2017-Jul-01 06:01:29 1011.700 7.3 65 1.1         1427.60
2017-Jul-01 07:01:52 1012.300 6.9 68 1.4         1427.60
2017-Jul-01 08:01:54 1012.800 10.3 69 4.9         1427.60
2017-Jul-01 09:01:52 1012.800 15.8 53 6.2         1427.60
2017-Jul-01 10:01:57 1013.200 20.9 40 6.8         1427.60
2017-Jul-01 11:01:10 1013.000 23.7 34 6.8         1427.60
2017-Jul-01 12:01:06 1013.200 26.2 30 7.3         1427.60
2017-Jul-01 13:09:02 1012.700 - - - - S     1427.60
2017-Jul-01 14:01:59 1012.700 26.4 28 6.3         1427.60
2017-Jul-01 15:01:17 1012.500 23.3 30 4.8 1.0 S     1427.60
2017-Jul-01 16:01:48 1012.500 25.1 28 5.2         1427.60
2017-Jul-01 17:10:13 1012.400 - - - - S     1427.60
2017-Jul-01 18:01:45 1012.600 22.3 46 10.0         1427.60
2017-Jul-01 19:01:09 1012.800 21.1 47 9.3 2.7 S     1427.60
2017-Jul-01 20:09:05 1013.400 - - - - S     1427.60
2017-Jul-01 21:01:08 1014.000 18.6 54 9.1         1427.60
2017-Jul-01 22:01:47 1014.400 17.3 58 8.9         1427.60
2017-Jul-01 23:01:39 1015.400 14.9 61 7.4         1427.60

Temperatura Máxima:26°    Temperatura Mínima:
Presión Máxima:1015.400 Hpa    Presión Mínima:1011.500 Hpa


Volver